Terminal Aerodrome Forecast
Issued by NWS

Home | Current Version | Previous Version | Graphics & Text | Print | Product List | Glossary On
Versions: 1 2 3 4 5 6 7 8 9 10 11 12 13 14 15 16 17 18 19 20 21 22 23 24 25 26
000
FTUS43 KLOT 151506 AAA
TAFGYY
TAF AMD
KGYY 151506Z 1515/1612 16010KT 4SM -SN BKN025 OVC070
      TEMPO 1515/1518 3SM -SN BR BKN015 OVC025
     FM151800 21007KT 4SM -SN OVC018
     FM152000 27012KT 5SM -SN BKN012 OVC020
     FM160000 27012KT P6SM SCT015 BKN025
     FM160700 29012KT 6SM -SN BKN025 PROB30 1608/1612 2SM -SHSN=

USA.gov is the U.S. government's official web portal to all federal, state and local government web resources and services.